ADDS METAR Data INFO
IDs: Format: Raw Decoded Include TAF

Data at: 2155 UTC 16 Oct 2017

KLUD 162135Z AUTO 02003KT 10SM CLR 22/02 A3027 RMK AO2 T02230018
KLUD 162115Z AUTO 07003KT 10SM CLR 22/01 A3028 RMK AO2 T02160014
KLUD 162055Z AUTO 07004KT 10SM CLR 22/02 A3029 RMK AO2 T02220017
KLUD 162035Z AUTO 00000KT 7SM CLR 22/01 A3029 RMK AO2 T02200010
KLUD 162015Z AUTO 10003KT 10SM CLR 22/00 A3031 RMK AO2 T02160004
KLUD 161955Z AUTO 05005KT 10SM CLR 22/00 A3031 RMK AO2 T02171001
KLUD 161935Z AUTO 04005KT 10SM CLR 21/00 A3032 RMK AO2 T02110001
KLUD 161915Z AUTO 06005KT 10SM CLR 21/00 A3034 RMK AO2 T02090001
KLUD 161855Z AUTO 03004KT 10SM CLR 21/00 A3034 RMK AO2 T02051004
KLUD 161835Z AUTO 36005KT 10SM CLR 21/00 A3036 RMK AO2 T02051004
KLUD 161815Z AUTO 10006KT 10SM CLR 20/00 A3038 RMK AO2 T01960000
KLUD 161755Z AUTO 01004KT 10SM CLR 20/01 A3039 RMK AO2 6//// T01990010
KLUD 161735Z AUTO 04006KT 10SM CLR 20/00 A3040 RMK AO2 T01961003
KLUD 161715Z AUTO 06005KT 10SM CLR 19/00 A3041 RMK AO2 T01860000
KLUD 161655Z AUTO 05008KT 10SM CLR 19/01 A3041 RMK AO2 T01880012
KLUD 161635Z AUTO 04010KT 10SM CLR 19/02 A3042 RMK AO2 T01850017
KLUD 161615Z AUTO 06011KT 10SM CLR 18/02 A3042 RMK AO2 T01760018
KLUD 161555Z AUTO 06010G15KT 10SM CLR 17/03 A3043 RMK AO2 T01690025
KLUD 161535Z AUTO 06010G14KT 10SM CLR 17/03 A3043 RMK AO2 T01650029
KLUD 161515Z AUTO 04007KT 10SM CLR 16/04 A3043 RMK AO2 T01580035
KLUD 161455Z AUTO 04006KT 10SM CLR 15/03 A3044 RMK AO2 6//// T01470033
KLUD 161435Z AUTO 04004KT 10SM CLR 14/04 A3043 RMK AO2 T01370039
KLUD 161415Z AUTO 04004KT 10SM CLR 13/04 A3043 RMK AO2 T01250041
KLUD 161355Z AUTO 02004KT 10SM CLR 12/04 A3042 RMK AO2 T01160036
KLUD 160750Z AUTO 35005KT 10SM CLR 10/04 A3039 RMK AO2 T01000039
KLUD 160730Z AUTO 35005KT 7SM CLR 10/04 A3039 RMK AO2 T00990040
KLUD 160715Z AUTO 35004KT 10SM CLR 10/04 A3038 RMK AO2 T01010040
KLUD 160655Z AUTO 35004KT 10SM CLR 10/04 A3038 RMK AO2 T01020040
KLUD 160630Z AUTO 35004KT 10SM CLR 11/04 A3038 RMK AO2 T01050042
KLUD 160615Z AUTO 35004KT 10SM CLR 11/04 A3038 RMK AO2 T01050044
KLUD 160555Z AUTO 34004KT 10SM CLR 11/05 A3038 RMK AO2 T01050046 10171 20105 402530105
KLUD 160535Z AUTO 34004KT 10SM CLR 11/05 A3038 RMK AO2 T01070047
KLUD 160515Z AUTO 34004KT 10SM CLR 11/05 A3038 RMK AO2 T01110047
KLUD 160455Z AUTO 35004KT 10SM CLR 12/05 A3038 RMK AO2 T01150049
KLUD 160435Z AUTO 35005KT 10SM CLR 12/05 A3038 RMK AO2 T01180050
KLUD 160415Z AUTO 34005KT 10SM CLR 12/05 A3038 RMK AO2 T01210050
KLUD 160355Z AUTO 34006KT 10SM CLR 13/05 A3038 RMK AO2 T01250047
KLUD 160335Z AUTO 34005KT 10SM CLR 13/05 A3038 RMK AO2 T01280046
KLUD 160315Z AUTO 33005KT 10SM CLR 13/05 A3037 RMK AO2 T01250047
KLUD 160255Z AUTO 33005KT 10SM CLR 13/05 A3037 RMK AO2 T01290046
KLUD 160235Z AUTO 33004KT 10SM CLR 13/05 A3036 RMK AO2 T01340046
KLUD 160215Z AUTO 33004KT 10SM CLR 14/05 A3036 RMK AO2 T01370047
KLUD 160155Z AUTO 34005KT 10SM CLR 14/05 A3036 RMK AO2 T01400047
KLUD 160135Z AUTO 33004KT 10SM CLR 14/05 A3034 RMK AO2 T01370046
KLUD 160115Z AUTO 33003KT 10SM CLR 14/05 A3033 RMK AO2 T01420047
KLUD 160055Z AUTO 33003KT 10SM CLR 15/05 A3033 RMK AO2 T01470046
KLUD 160035Z AUTO 33003KT 10SM CLR 16/04 A3032 RMK AO2 T01550041
KLUD 160015Z AUTO 34005KT 10SM CLR 16/04 A3031 RMK AO2 T01640035
KLUD 152355Z AUTO 35005KT 10SM CLR 17/03 A3030 RMK AO2 T01720030 10224 20172
KLUD 152335Z AUTO 36009KT 10SM CLR 18/03 A3029 RMK AO2 T01810026
KLUD 152315Z AUTO 35010G18KT 10SM CLR 20/03 A3029 RMK AO2 T01950027
KLUD 152255Z AUTO 36010G17KT 10SM CLR 20/03 A3029 RMK AO2 T01980033
KLUD 152235Z AUTO 35008G15KT 300V010 10SM CLR 20/03 A3029 RMK AO2 T02000026
KLUD 152215Z AUTO 36010G20KT 10SM CLR 21/02 A3028 RMK AO2 T02130019
KLUD 152155Z AUTO 35009G15KT 10SM CLR 21/03 A3028 RMK AO2 T02120026
KLUD 152135Z AUTO 35010G17KT 10SM CLR 22/03 A3028 RMK AO2 T02170027
KLUD 152115Z AUTO 35010G18KT 10SM CLR 21/03 A3028 RMK AO2 T02110030
KLUD 152055Z AUTO 35007G20KT 7SM CLR 22/02 A3029 RMK AO2 T02170024
KLUD 152035Z AUTO 34007G21KT 310V010 10SM CLR 22/03 A3029 RMK AO2 T02190030
KLUD 152015Z AUTO 35010G23KT 320V020 10SM CLR 22/04 A3029 RMK AO2 T02160038
KLUD 151955Z AUTO 34012G19KT 10SM CLR 22/05 A3029 RMK AO2 T02160049
KLUD 151935Z AUTO 35010G19KT 320V020 10SM CLR 21/05 A3030 RMK AO2 T02130048
KLUD 151915Z AUTO 34009G17KT 10SM CLR 19/06 A3030 RMK AO2 T01930056
KLUD 151855Z AUTO 34010G18KT 10SM CLR 19/06 A3031 RMK AO2 T01910060
KLUD 151835Z AUTO 35008G16KT 10SM CLR 19/06 A3032 RMK AO2 T01900058
KLUD 151815Z AUTO 01009G16KT 10SM CLR 19/06 A3032 RMK AO2 T01910060
KLUD 151755Z AUTO 36008G18KT 10SM CLR 20/06 A3033 RMK AO2 T01960062 10196 20127
KLUD 151735Z AUTO 01010G16KT 10SM CLR 17/06 A3032 RMK AO2 T01730061
KLUD 151715Z AUTO 36009G18KT 10SM CLR 17/06 A3033 RMK AO2 T01730058
KLUD 151655Z AUTO 36005G16KT 10SM CLR 18/08 A3032 RMK AO2 T01760075
KLUD 151635Z AUTO 35010G17KT 10SM CLR 18/08 A3032 RMK AO2 T01750075
KLUD 151615Z AUTO 36009G17KT 330V030 10SM CLR 16/08 A3032 RMK AO2 T01610075
KLUD 151555Z AUTO 35007G19KT 310V020 10SM CLR 16/08 A3032 RMK AO2 T01570080
KLUD 151535Z AUTO 36011G17KT 10SM CLR 15/09 A3031 RMK AO2 T01530087
KLUD 151515Z AUTO 36010G17KT 10SM CLR 14/09 A3032 RMK AO2 T01410086
KLUD 151455Z AUTO 36010G16KT 10SM CLR 14/09 A3031 RMK AO2 T01440087
KLUD 151435Z AUTO 36015G21KT 10SM CLR 14/09 A3030 RMK AO2 T01360087
KLUD 151415Z AUTO 35013G19KT 10SM CLR 14/09 A3029 RMK AO2 T01350089
KLUD 151355Z AUTO 36009G17KT 10SM CLR 13/09 A3029 RMK AO2 T01320090
KLUD 151335Z AUTO 36012G23KT 10SM CLR 13/09 A3027 RMK AO2 T01280087
KLUD 151315Z AUTO 35013G21KT 10SM SCT019 13/09 A3026 RMK AO2 T01310089
KLUD 151255Z AUTO 35011G18KT 10SM BKN019 14/10 A3025 RMK AO2 T01350095
KLUD 151235Z AUTO 33009G17KT 280V360 10SM OVC017 14/11 A3024 RMK AO2 T01400107
KLUD 151215Z AUTO 34011G19KT 310V010 10SM BKN016 OVC021 14/11 A3024 RMK AO2 T01420108
KLUD 151155Z AUTO 33010G17KT 10SM SCT008 BKN016 OVC020 15/12 A3022 RMK AO2 T01500121 10253 20150
KLUD 151135Z AUTO 34007KT 10SM BKN014 OVC019 16/15 A3019 RMK AO2 T01630147
KLUD 151115Z AUTO 35006KT 10SM BKN014 OVC041 16/15 A3018 RMK AO2 T01630146
KLUD 151055Z AUTO 35006KT 10SM BKN016 OVC039 16/15 A3017 RMK AO2 T01630145
KLUD 151035Z AUTO 36008G15KT 10SM SCT016 BKN037 OVC055 17/14 A3016 RMK AO2 T01650144
KLUD 151015Z AUTO 36009G19KT 10SM SCT006 SCT016 OVC037 16/14 A3014 RMK AO2 T01630144